Terminal Aerodrome Forecast
Issued by NWS

Home | Current Version | Previous Version | Text Only | Print | Product List | Glossary On
Versions: 1 2 3 4 5 6 7 8 9 10 11 12 13
040
FTUS42 KTAE 271120
TAFABY
TAF
KABY 271120Z 2712/2812 00000KT 6SM BR SCT005
      TEMPO 2712/2714 2SM BR BKN005
     FM271500 20008KT P6SM SCT025 BKN250
     FM280900 20002KT 2SM BR OVC007=

USA.gov is the U.S. government's official web portal to all federal, state and local government web resources and services.